sensor_id;sensor_type;location;lat;lon;timestamp;P1;durP1;ratioP1;P2;durP2;ratioP2
6288;SDS011;3177;49.880;8.836;2023-04-19T00:01:53;5.53;;;5.03;;
6288;SDS011;3177;49.880;8.836;2023-04-19T00:04:21;6.27;;;5.20;;
6288;SDS011;3177;49.880;8.836;2023-04-19T00:06:49;6.03;;;5.00;;
6288;SDS011;3177;49.880;8.836;2023-04-19T00:09:16;5.40;;;4.90;;
6288;SDS011;3177;49.880;8.836;2023-04-19T00:11:43;6.40;;;4.77;;
6288;SDS011;3177;49.880;8.836;2023-04-19T00:14:10;5.50;;;4.87;;
6288;SDS011;3177;49.880;8.836;2023-04-19T00:16:38;5.43;;;4.93;;
6288;SDS011;3177;49.880;8.836;2023-04-19T00:19:05;7.53;;;4.97;;
6288;SDS011;3177;49.880;8.836;2023-04-19T00:21:34;4.53;;;4.13;;
6288;SDS011;3177;49.880;8.836;2023-04-19T00:24:01;7.10;;;4.73;;
6288;SDS011;3177;49.880;8.836;2023-04-19T00:26:28;7.13;;;5.17;;
6288;SDS011;3177;49.880;8.836;2023-04-19T00:28:55;4.73;;;4.33;;
6288;SDS011;3177;49.880;8.836;2023-04-19T00:31:22;4.83;;;4.33;;
6288;SDS011;3177;49.880;8.836;2023-04-19T00:33:49;4.70;;;4.30;;
6288;SDS011;3177;49.880;8.836;2023-04-19T00:36:16;4.00;;;3.70;;
6288;SDS011;3177;49.880;8.836;2023-04-19T00:38:45;4.83;;;3.90;;
6288;SDS011;3177;49.880;8.836;2023-04-19T00:41:12;4.90;;;4.50;;
6288;SDS011;3177;49.880;8.836;2023-04-19T00:43:39;4.37;;;3.97;;
6288;SDS011;3177;49.880;8.836;2023-04-19T00:46:06;8.50;;;3.93;;
6288;SDS011;3177;49.880;8.836;2023-04-19T00:48:33;4.73;;;4.17;;
6288;SDS011;3177;49.880;8.836;2023-04-19T00:51:01;4.37;;;3.97;;
6288;SDS011;3177;49.880;8.836;2023-04-19T00:53:28;3.90;;;3.50;;
6288;SDS011;3177;49.880;8.836;2023-04-19T00:55:57;4.60;;;3.83;;
6288;SDS011;3177;49.880;8.836;2023-04-19T00:58:26;4.07;;;3.70;;
6288;SDS011;3177;49.880;8.836;2023-04-19T01:00:55;6.43;;;3.90;;
6288;SDS011;3177;49.880;8.836;2023-04-19T01:03:22;4.73;;;4.00;;
6288;SDS011;3177;49.880;8.836;2023-04-19T01:05:51;4.93;;;3.93;;
6288;SDS011;3177;49.880;8.836;2023-04-19T01:08:18;4.90;;;3.90;;
6288;SDS011;3177;49.880;8.836;2023-04-19T01:10:45;5.07;;;4.20;;
6288;SDS011;3177;49.880;8.836;2023-04-19T01:13:14;4.90;;;4.40;;
6288;SDS011;3177;49.880;8.836;2023-04-19T01:15:41;4.20;;;3.80;;
6288;SDS011;3177;49.880;8.836;2023-04-19T01:18:08;4.97;;;4.20;;
6288;SDS011;3177;49.880;8.836;2023-04-19T01:20:35;4.20;;;3.80;;
6288;SDS011;3177;49.880;8.836;2023-04-19T01:23:03;5.10;;;4.00;;
6288;SDS011;3177;49.880;8.836;2023-04-19T01:25:30;4.53;;;4.13;;
6288;SDS011;3177;49.880;8.836;2023-04-19T01:27:57;4.30;;;3.90;;
6288;SDS011;3177;49.880;8.836;2023-04-19T01:30:24;5.73;;;4.57;;
6288;SDS011;3177;49.880;8.836;2023-04-19T01:32:51;5.00;;;4.50;;
6288;SDS011;3177;49.880;8.836;2023-04-19T01:35:18;5.43;;;4.93;;
6288;SDS011;3177;49.880;8.836;2023-04-19T01:37:46;4.80;;;4.30;;
6288;SDS011;3177;49.880;8.836;2023-04-19T01:40:14;4.63;;;4.13;;
6288;SDS011;3177;49.880;8.836;2023-04-19T01:42:41;4.77;;;4.37;;
6288;SDS011;3177;49.880;8.836;2023-04-19T01:45:09;5.43;;;4.93;;
6288;SDS011;3177;49.880;8.836;2023-04-19T01:47:36;4.43;;;4.03;;
6288;SDS011;3177;49.880;8.836;2023-04-19T01:50:03;5.87;;;4.43;;
6288;SDS011;3177;49.880;8.836;2023-04-19T01:52:30;4.80;;;4.40;;
6288;SDS011;3177;49.880;8.836;2023-04-19T01:54:57;4.87;;;4.37;;
6288;SDS011;3177;49.880;8.836;2023-04-19T01:57:26;4.77;;;4.37;;
6288;SDS011;3177;49.880;8.836;2023-04-19T01:59:53;4.43;;;4.03;;
6288;SDS011;3177;49.880;8.836;2023-04-19T02:02:21;4.67;;;4.27;;
6288;SDS011;3177;49.880;8.836;2023-04-19T02:04:48;4.57;;;4.17;;
6288;SDS011;3177;49.880;8.836;2023-04-19T02:07:15;5.13;;;4.63;;
6288;SDS011;3177;49.880;8.836;2023-04-19T02:09:42;4.33;;;3.93;;
6288;SDS011;3177;49.880;8.836;2023-04-19T02:12:09;5.23;;;4.30;;
6288;SDS011;3177;49.880;8.836;2023-04-19T02:14:37;4.70;;;4.20;;
6288;SDS011;3177;49.880;8.836;2023-04-19T02:17:05;5.13;;;4.50;;
6288;SDS011;3177;49.880;8.836;2023-04-19T02:19:32;4.83;;;4.30;;
6288;SDS011;3177;49.880;8.836;2023-04-19T02:21:59;5.93;;;4.90;;
6288;SDS011;3177;49.880;8.836;2023-04-19T02:24:26;6.43;;;5.00;;
6288;SDS011;3177;49.880;8.836;2023-04-19T02:26:53;6.13;;;4.80;;
6288;SDS011;3177;49.880;8.836;2023-04-19T02:29:20;5.70;;;4.60;;
6288;SDS011;3177;49.880;8.836;2023-04-19T02:31:48;5.17;;;4.67;;
6288;SDS011;3177;49.880;8.836;2023-04-19T02:34:15;5.10;;;4.17;;
6288;SDS011;3177;49.880;8.836;2023-04-19T02:36:42;5.17;;;4.77;;
6288;SDS011;3177;49.880;8.836;2023-04-19T02:39:09;5.40;;;4.87;;
6288;SDS011;3177;49.880;8.836;2023-04-19T02:41:37;7.13;;;5.03;;
6288;SDS011;3177;49.880;8.836;2023-04-19T02:44:04;7.47;;;5.47;;
6288;SDS011;3177;49.880;8.836;2023-04-19T02:46:32;5.93;;;5.33;;
6288;SDS011;3177;49.880;8.836;2023-04-19T02:49:00;6.03;;;5.43;;
6288;SDS011;3177;49.880;8.836;2023-04-19T02:51:27;7.13;;;6.03;;
6288;SDS011;3177;49.880;8.836;2023-04-19T02:53:55;6.30;;;5.70;;
6288;SDS011;3177;49.880;8.836;2023-04-19T02:56:22;5.23;;;4.50;;
6288;SDS011;3177;49.880;8.836;2023-04-19T02:58:49;6.50;;;5.23;;
6288;SDS011;3177;49.880;8.836;2023-04-19T03:01:16;5.33;;;4.83;;
6288;SDS011;3177;49.880;8.836;2023-04-19T03:03:44;5.87;;;4.97;;
6288;SDS011;3177;49.880;8.836;2023-04-19T03:06:12;6.00;;;5.40;;
6288;SDS011;3177;49.880;8.836;2023-04-19T03:08:40;6.47;;;5.20;;
6288;SDS011;3177;49.880;8.836;2023-04-19T03:11:07;5.57;;;5.07;;
6288;SDS011;3177;49.880;8.836;2023-04-19T03:13:35;5.80;;;5.20;;
6288;SDS011;3177;49.880;8.836;2023-04-19T03:16:02;6.57;;;5.30;;
6288;SDS011;3177;49.880;8.836;2023-04-19T03:18:30;6.33;;;5.27;;
6288;SDS011;3177;49.880;8.836;2023-04-19T03:20:57;6.30;;;5.70;;
6288;SDS011;3177;49.880;8.836;2023-04-19T03:23:25;5.83;;;5.30;;
6288;SDS011;3177;49.880;8.836;2023-04-19T03:25:53;6.00;;;5.43;;
6288;SDS011;3177;49.880;8.836;2023-04-19T03:28:20;5.57;;;5.03;;
6288;SDS011;3177;49.880;8.836;2023-04-19T03:30:47;6.40;;;5.27;;
6288;SDS011;3177;49.880;8.836;2023-04-19T03:33:14;5.60;;;5.03;;
6288;SDS011;3177;49.880;8.836;2023-04-19T03:35:42;6.87;;;5.37;;
6288;SDS011;3177;49.880;8.836;2023-04-19T03:38:09;7.43;;;6.00;;
6288;SDS011;3177;49.880;8.836;2023-04-19T03:40:38;7.20;;;6.50;;
6288;SDS011;3177;49.880;8.836;2023-04-19T03:43:05;7.47;;;6.57;;
6288;SDS011;3177;49.880;8.836;2023-04-19T03:45:32;8.57;;;6.57;;
6288;SDS011;3177;49.880;8.836;2023-04-19T03:47:59;8.43;;;6.93;;
6288;SDS011;3177;49.880;8.836;2023-04-19T03:50:26;8.37;;;7.17;;
6288;SDS011;3177;49.880;8.836;2023-04-19T03:52:53;10.53;;;7.43;;
6288;SDS011;3177;49.880;8.836;2023-04-19T03:55:20;8.77;;;6.70;;
6288;SDS011;3177;49.880;8.836;2023-04-19T03:57:48;7.30;;;6.47;;
6288;SDS011;3177;49.880;8.836;2023-04-19T04:00:16;7.87;;;6.40;;
6288;SDS011;3177;49.880;8.836;2023-04-19T04:02:43;8.70;;;6.60;;
6288;SDS011;3177;49.880;8.836;2023-04-19T04:05:10;7.77;;;6.10;;
6288;SDS011;3177;49.880;8.836;2023-04-19T04:07:37;7.37;;;6.20;;
6288;SDS011;3177;49.880;8.836;2023-04-19T04:10:04;6.27;;;5.67;;
6288;SDS011;3177;49.880;8.836;2023-04-19T04:12:32;6.40;;;5.77;;
6288;SDS011;3177;49.880;8.836;2023-04-19T04:15:00;6.43;;;5.40;;
6288;SDS011;3177;49.880;8.836;2023-04-19T04:17:27;7.03;;;6.07;;
6288;SDS011;3177;49.880;8.836;2023-04-19T04:19:54;6.80;;;6.10;;
6288;SDS011;3177;49.880;8.836;2023-04-19T04:22:21;6.83;;;6.10;;
6288;SDS011;3177;49.880;8.836;2023-04-19T04:24:48;7.73;;;6.83;;
6288;SDS011;3177;49.880;8.836;2023-04-19T04:27:17;8.93;;;6.53;;
6288;SDS011;3177;49.880;8.836;2023-04-19T04:29:45;8.67;;;6.90;;
6288;SDS011;3177;49.880;8.836;2023-04-19T04:32:14;7.37;;;6.47;;
6288;SDS011;3177;49.880;8.836;2023-04-19T04:34:42;8.97;;;7.17;;
6288;SDS011;3177;49.880;8.836;2023-04-19T04:37:09;9.57;;;7.70;;
6288;SDS011;3177;49.880;8.836;2023-04-19T04:39:37;7.57;;;6.63;;
6288;SDS011;3177;49.880;8.836;2023-04-19T04:42:04;7.67;;;6.93;;
6288;SDS011;3177;49.880;8.836;2023-04-19T04:44:33;8.27;;;7.30;;
6288;SDS011;3177;49.880;8.836;2023-04-19T04:47:00;11.83;;;8.10;;
6288;SDS011;3177;49.880;8.836;2023-04-19T04:49:28;10.93;;;7.50;;
6288;SDS011;3177;49.880;8.836;2023-04-19T04:51:55;9.27;;;7.40;;
6288;SDS011;3177;49.880;8.836;2023-04-19T04:54:22;10.87;;;8.63;;
6288;SDS011;3177;49.880;8.836;2023-04-19T04:56:49;11.67;;;8.93;;
6288;SDS011;3177;49.880;8.836;2023-04-19T04:59:17;11.23;;;8.30;;
6288;SDS011;3177;49.880;8.836;2023-04-19T05:01:44;12.70;;;8.20;;
6288;SDS011;3177;49.880;8.836;2023-04-19T05:04:11;10.03;;;8.33;;
6288;SDS011;3177;49.880;8.836;2023-04-19T05:06:39;11.20;;;8.27;;
6288;SDS011;3177;49.880;8.836;2023-04-19T05:09:06;12.63;;;8.50;;
6288;SDS011;3177;49.880;8.836;2023-04-19T05:11:33;9.33;;;7.70;;
6288;SDS011;3177;49.880;8.836;2023-04-19T05:14:01;10.37;;;8.33;;
6288;SDS011;3177;49.880;8.836;2023-04-19T05:16:29;10.03;;;8.53;;
6288;SDS011;3177;49.880;8.836;2023-04-19T05:18:56;9.80;;;8.50;;
6288;SDS011;3177;49.880;8.836;2023-04-19T05:21:24;11.23;;;9.17;;
6288;SDS011;3177;49.880;8.836;2023-04-19T05:23:54;9.43;;;8.30;;
6288;SDS011;3177;49.880;8.836;2023-04-19T05:26:21;11.20;;;8.63;;
6288;SDS011;3177;49.880;8.836;2023-04-19T05:28:48;11.93;;;8.53;;
6288;SDS011;3177;49.880;8.836;2023-04-19T05:31:15;14.97;;;8.73;;
6288;SDS011;3177;49.880;8.836;2023-04-19T05:33:42;11.03;;;8.73;;
6288;SDS011;3177;49.880;8.836;2023-04-19T05:36:09;12.80;;;9.03;;
6288;SDS011;3177;49.880;8.836;2023-04-19T05:38:36;10.50;;;8.43;;
6288;SDS011;3177;49.880;8.836;2023-04-19T05:41:04;12.77;;;9.33;;
6288;SDS011;3177;49.880;8.836;2023-04-19T05:43:32;11.73;;;8.43;;
6288;SDS011;3177;49.880;8.836;2023-04-19T05:45:59;22.60;;;9.47;;
6288;SDS011;3177;49.880;8.836;2023-04-19T05:48:26;11.80;;;8.90;;
6288;SDS011;3177;49.880;8.836;2023-04-19T05:50:53;11.57;;;8.73;;
6288;SDS011;3177;49.880;8.836;2023-04-19T05:53:22;12.90;;;9.57;;
6288;SDS011;3177;49.880;8.836;2023-04-19T05:55:49;11.83;;;9.17;;
6288;SDS011;3177;49.880;8.836;2023-04-19T05:58:18;13.47;;;9.73;;
6288;SDS011;3177;49.880;8.836;2023-04-19T06:00:45;11.50;;;9.37;;
6288;SDS011;3177;49.880;8.836;2023-04-19T06:03:12;11.67;;;8.63;;
6288;SDS011;3177;49.880;8.836;2023-04-19T06:05:41;13.63;;;9.50;;
6288;SDS011;3177;49.880;8.836;2023-04-19T06:08:08;12.27;;;9.63;;
6288;SDS011;3177;49.880;8.836;2023-04-19T06:10:35;12.03;;;9.40;;
6288;SDS011;3177;49.880;8.836;2023-04-19T06:13:02;12.13;;;9.50;;
6288;SDS011;3177;49.880;8.836;2023-04-19T06:15:31;16.27;;;9.47;;
6288;SDS011;3177;49.880;8.836;2023-04-19T06:17:58;14.20;;;10.20;;
6288;SDS011;3177;49.880;8.836;2023-04-19T06:20:25;14.07;;;10.10;;
6288;SDS011;3177;49.880;8.836;2023-04-19T06:22:52;16.90;;;10.90;;
6288;SDS011;3177;49.880;8.836;2023-04-19T06:25:19;13.50;;;9.33;;
6288;SDS011;3177;49.880;8.836;2023-04-19T06:27:46;20.37;;;9.43;;
6288;SDS011;3177;49.880;8.836;2023-04-19T06:30:14;18.23;;;9.20;;
6288;SDS011;3177;49.880;8.836;2023-04-19T06:32:42;13.87;;;9.43;;
6288;SDS011;3177;49.880;8.836;2023-04-19T06:35:09;12.63;;;8.80;;
6288;SDS011;3177;49.880;8.836;2023-04-19T06:37:36;14.20;;;9.57;;
6288;SDS011;3177;49.880;8.836;2023-04-19T06:40:04;10.57;;;7.50;;
6288;SDS011;3177;49.880;8.836;2023-04-19T06:42:32;9.80;;;7.63;;
6288;SDS011;3177;49.880;8.836;2023-04-19T06:44:59;11.40;;;8.10;;
6288;SDS011;3177;49.880;8.836;2023-04-19T06:47:27;10.73;;;7.60;;
6288;SDS011;3177;49.880;8.836;2023-04-19T06:49:56;9.60;;;8.37;;
6288;SDS011;3177;49.880;8.836;2023-04-19T06:52:23;8.63;;;7.03;;
6288;SDS011;3177;49.880;8.836;2023-04-19T06:54:50;10.07;;;8.57;;
6288;SDS011;3177;49.880;8.836;2023-04-19T06:57:17;9.37;;;8.20;;
6288;SDS011;3177;49.880;8.836;2023-04-19T06:59:45;9.33;;;7.80;;
6288;SDS011;3177;49.880;8.836;2023-04-19T07:02:12;10.83;;;8.53;;
6288;SDS011;3177;49.880;8.836;2023-04-19T07:04:39;11.67;;;8.13;;
6288;SDS011;3177;49.880;8.836;2023-04-19T07:07:07;11.53;;;8.27;;
6288;SDS011;3177;49.880;8.836;2023-04-19T07:09:34;12.17;;;7.47;;
6288;SDS011;3177;49.880;8.836;2023-04-19T07:12:01;10.03;;;8.70;;
6288;SDS011;3177;49.880;8.836;2023-04-19T07:14:28;10.67;;;8.17;;
6288;SDS011;3177;49.880;8.836;2023-04-19T07:16:55;8.33;;;7.07;;
6288;SDS011;3177;49.880;8.836;2023-04-19T07:19:23;9.20;;;8.10;;
6288;SDS011;3177;49.880;8.836;2023-04-19T07:21:50;9.70;;;7.93;;
6288;SDS011;3177;49.880;8.836;2023-04-19T07:24:18;11.07;;;8.00;;
6288;SDS011;3177;49.880;8.836;2023-04-19T07:26:46;9.27;;;7.53;;
6288;SDS011;3177;49.880;8.836;2023-04-19T07:29:13;9.70;;;6.93;;
6288;SDS011;3177;49.880;8.836;2023-04-19T07:31:40;10.23;;;7.20;;
6288;SDS011;3177;49.880;8.836;2023-04-19T07:34:07;8.30;;;6.90;;
6288;SDS011;3177;49.880;8.836;2023-04-19T07:36:34;10.63;;;7.03;;
6288;SDS011;3177;49.880;8.836;2023-04-19T07:39:02;7.97;;;6.93;;
6288;SDS011;3177;49.880;8.836;2023-04-19T07:41:31;13.60;;;7.20;;
6288;SDS011;3177;49.880;8.836;2023-04-19T07:43:58;9.53;;;6.20;;
6288;SDS011;3177;49.880;8.836;2023-04-19T07:46:25;7.67;;;6.40;;
6288;SDS011;3177;49.880;8.836;2023-04-19T07:48:52;7.63;;;6.03;;
6288;SDS011;3177;49.880;8.836;2023-04-19T07:51:19;8.33;;;5.97;;
6288;SDS011;3177;49.880;8.836;2023-04-19T07:53:48;8.60;;;6.37;;
6288;SDS011;3177;49.880;8.836;2023-04-19T07:56:15;11.60;;;6.57;;
6288;SDS011;3177;49.880;8.836;2023-04-19T07:58:45;7.93;;;6.43;;
6288;SDS011;3177;49.880;8.836;2023-04-19T08:01:12;7.57;;;6.00;;
6288;SDS011;3177;49.880;8.836;2023-04-19T08:03:39;7.10;;;5.10;;
6288;SDS011;3177;49.880;8.836;2023-04-19T08:06:06;6.80;;;5.43;;
6288;SDS011;3177;49.880;8.836;2023-04-19T08:08:35;5.27;;;4.57;;
6288;SDS011;3177;49.880;8.836;2023-04-19T08:11:02;5.17;;;4.67;;
6288;SDS011;3177;49.880;8.836;2023-04-19T08:13:30;6.00;;;4.60;;
6288;SDS011;3177;49.880;8.836;2023-04-19T08:15:58;9.90;;;7.77;;
6288;SDS011;3177;49.880;8.836;2023-04-19T08:18:25;5.90;;;4.80;;
6288;SDS011;3177;49.880;8.836;2023-04-19T08:20:52;6.30;;;4.97;;
6288;SDS011;3177;49.880;8.836;2023-04-19T08:23:20;5.20;;;4.43;;
6288;SDS011;3177;49.880;8.836;2023-04-19T08:25:47;5.20;;;4.70;;
6288;SDS011;3177;49.880;8.836;2023-04-19T08:28:14;7.03;;;4.80;;
6288;SDS011;3177;49.880;8.836;2023-04-19T08:30:42;6.13;;;4.97;;
6288;SDS011;3177;49.880;8.836;2023-04-19T08:33:10;5.07;;;4.23;;
6288;SDS011;3177;49.880;8.836;2023-04-19T08:35:37;6.03;;;4.90;;
6288;SDS011;3177;49.880;8.836;2023-04-19T08:38:05;5.23;;;4.43;;
6288;SDS011;3177;49.880;8.836;2023-04-19T08:40:32;7.47;;;4.93;;
6288;SDS011;3177;49.880;8.836;2023-04-19T08:43:03;4.60;;;4.10;;
6288;SDS011;3177;49.880;8.836;2023-04-19T08:45:30;4.77;;;4.27;;
6288;SDS011;3177;49.880;8.836;2023-04-19T08:47:58;4.80;;;4.40;;
6288;SDS011;3177;49.880;8.836;2023-04-19T08:50:29;5.77;;;4.17;;
6288;SDS011;3177;49.880;8.836;2023-04-19T08:52:57;5.10;;;4.60;;
6288;SDS011;3177;49.880;8.836;2023-04-19T08:55:25;5.03;;;4.53;;
6288;SDS011;3177;49.880;8.836;2023-04-19T08:57:54;6.87;;;4.90;;
6288;SDS011;3177;49.880;8.836;2023-04-19T09:00:22;5.77;;;4.53;;
6288;SDS011;3177;49.880;8.836;2023-04-19T09:02:49;5.67;;;4.40;;
6288;SDS011;3177;49.880;8.836;2023-04-19T09:05:18;5.27;;;4.40;;
6288;SDS011;3177;49.880;8.836;2023-04-19T09:07:47;4.87;;;4.33;;
6288;SDS011;3177;49.880;8.836;2023-04-19T09:10:15;6.60;;;3.97;;
6288;SDS011;3177;49.880;8.836;2023-04-19T09:12:58;4.77;;;4.27;;
6288;SDS011;3177;49.880;8.836;2023-04-19T09:15:33;7.77;;;4.20;;
6288;SDS011;3177;49.880;8.836;2023-04-19T09:18:02;4.97;;;4.10;;
6288;SDS011;3177;49.880;8.836;2023-04-19T09:20:34;5.30;;;4.03;;
6288;SDS011;3177;49.880;8.836;2023-04-19T09:23:03;4.03;;;3.63;;
6288;SDS011;3177;49.880;8.836;2023-04-19T09:25:31;4.37;;;3.97;;
6288;SDS011;3177;49.880;8.836;2023-04-19T09:28:07;4.00;;;3.70;;
6288;SDS011;3177;49.880;8.836;2023-04-19T09:30:34;5.33;;;3.70;;
6288;SDS011;3177;49.880;8.836;2023-04-19T09:33:02;6.63;;;3.77;;
6288;SDS011;3177;49.880;8.836;2023-04-19T09:35:38;4.00;;;3.70;;
6288;SDS011;3177;49.880;8.836;2023-04-19T09:38:06;4.13;;;3.77;;
6288;SDS011;3177;49.880;8.836;2023-04-19T09:40:33;4.00;;;3.60;;
6288;SDS011;3177;49.880;8.836;2023-04-19T09:43:01;4.80;;;3.77;;
6288;SDS011;3177;49.880;8.836;2023-04-19T09:45:37;4.90;;;3.70;;
6288;SDS011;3177;49.880;8.836;2023-04-19T09:48:05;7.60;;;3.97;;
6288;SDS011;3177;49.880;8.836;2023-04-19T09:50:33;3.70;;;3.27;;
6288;SDS011;3177;49.880;8.836;2023-04-19T09:53:00;3.70;;;3.40;;
6288;SDS011;3177;49.880;8.836;2023-04-19T09:55:29;5.03;;;3.73;;
6288;SDS011;3177;49.880;8.836;2023-04-19T09:57:56;4.63;;;3.57;;
6288;SDS011;3177;49.880;8.836;2023-04-19T10:00:23;4.60;;;3.57;;
6288;SDS011;3177;49.880;8.836;2023-04-19T10:02:51;3.63;;;3.20;;
6288;SDS011;3177;49.880;8.836;2023-04-19T10:05:21;3.70;;;3.30;;
6288;SDS011;3177;49.880;8.836;2023-04-19T10:07:49;6.10;;;3.37;;
6288;SDS011;3177;49.880;8.836;2023-04-19T10:10:16;3.47;;;3.17;;
6288;SDS011;3177;49.880;8.836;2023-04-19T10:12:46;6.00;;;3.10;;
6288;SDS011;3177;49.880;8.836;2023-04-19T10:15:14;3.73;;;2.93;;
6288;SDS011;3177;49.880;8.836;2023-04-19T10:17:41;3.33;;;3.03;;
6288;SDS011;3177;49.880;8.836;2023-04-19T10:20:10;3.83;;;3.33;;
6288;SDS011;3177;49.880;8.836;2023-04-19T10:22:38;3.43;;;3.13;;
6288;SDS011;3177;49.880;8.836;2023-04-19T10:25:09;3.53;;;3.23;;
6288;SDS011;3177;49.880;8.836;2023-04-19T10:27:37;4.37;;;3.17;;
6288;SDS011;3177;49.880;8.836;2023-04-19T10:30:06;3.90;;;3.50;;
6288;SDS011;3177;49.880;8.836;2023-04-19T10:32:43;3.63;;;3.00;;
6288;SDS011;3177;49.880;8.836;2023-04-19T10:35:16;3.50;;;3.20;;
6288;SDS011;3177;49.880;8.836;2023-04-19T10:43:13;7.30;;;3.30;;
6288;SDS011;3177;49.880;8.836;2023-04-19T10:45:43;6.22;;;3.30;;
6288;SDS011;3177;49.880;8.836;2023-04-19T10:50:57;3.77;;;2.83;;
6288;SDS011;3177;49.880;8.836;2023-04-19T10:53:43;3.95;;;2.85;;
6288;SDS011;3177;49.880;8.836;2023-04-19T10:56:10;5.00;;;3.75;;
6288;SDS011;3177;49.880;8.836;2023-04-19T11:01:34;3.60;;;3.15;;
6288;SDS011;3177;49.880;8.836;2023-04-19T11:04:03;3.45;;;3.15;;
6288;SDS011;3177;49.880;8.836;2023-04-19T11:06:31;3.40;;;3.10;;
6288;SDS011;3177;49.880;8.836;2023-04-19T11:08:58;3.65;;;3.30;;
6288;SDS011;3177;49.880;8.836;2023-04-19T11:11:27;3.50;;;3.20;;
6288;SDS011;3177;49.880;8.836;2023-04-19T11:13:54;5.25;;;3.22;;
6288;SDS011;3177;49.880;8.836;2023-04-19T11:16:22;3.85;;;3.53;;
6288;SDS011;3177;49.880;8.836;2023-04-19T11:18:51;3.65;;;3.13;;
6288;SDS011;3177;49.880;8.836;2023-04-19T11:21:20;3.28;;;3.03;;
6288;SDS011;3177;49.880;8.836;2023-04-19T11:23:47;3.33;;;3.03;;
6288;SDS011;3177;49.880;8.836;2023-04-19T11:26:15;3.80;;;3.17;;
6288;SDS011;3177;49.880;8.836;2023-04-19T11:28:42;2.97;;;2.75;;
6288;SDS011;3177;49.880;8.836;2023-04-19T11:31:10;4.60;;;3.17;;
6288;SDS011;3177;49.880;8.836;2023-04-19T11:33:37;3.40;;;3.03;;
6288;SDS011;3177;49.880;8.836;2023-04-19T11:36:06;3.05;;;2.70;;
6288;SDS011;3177;49.880;8.836;2023-04-19T11:38:37;3.42;;;2.53;;
6288;SDS011;3177;49.880;8.836;2023-04-19T11:41:04;3.08;;;2.88;;
6288;SDS011;3177;49.880;8.836;2023-04-19T11:43:31;2.88;;;2.65;;
6288;SDS011;3177;49.880;8.836;2023-04-19T11:46:03;3.20;;;2.90;;
6288;SDS011;3177;49.880;8.836;2023-04-19T11:48:31;3.88;;;2.95;;
6288;SDS011;3177;49.880;8.836;2023-04-19T11:50:58;2.97;;;2.67;;
6288;SDS011;3177;49.880;8.836;2023-04-19T11:53:27;12.82;;;3.40;;
6288;SDS011;3177;49.880;8.836;2023-04-19T11:55:54;2.40;;;2.20;;
6288;SDS011;3177;49.880;8.836;2023-04-19T11:58:26;3.08;;;2.70;;
6288;SDS011;3177;49.880;8.836;2023-04-19T12:00:55;2.08;;;1.88;;
6288;SDS011;3177;49.880;8.836;2023-04-19T12:03:22;3.22;;;2.42;;
6288;SDS011;3177;49.880;8.836;2023-04-19T12:05:53;3.00;;;2.25;;
6288;SDS011;3177;49.880;8.836;2023-04-19T12:08:29;2.83;;;2.55;;
6288;SDS011;3177;49.880;8.836;2023-04-19T12:10:57;3.03;;;2.30;;
6288;SDS011;3177;49.880;8.836;2023-04-19T12:13:24;2.58;;;2.22;;
6288;SDS011;3177;49.880;8.836;2023-04-19T12:15:52;3.33;;;2.25;;
6288;SDS011;3177;49.880;8.836;2023-04-19T12:18:19;3.60;;;2.30;;
6288;SDS011;3177;49.880;8.836;2023-04-19T12:20:46;1.88;;;1.77;;
6288;SDS011;3177;49.880;8.836;2023-04-19T12:23:14;1.90;;;1.77;;
6288;SDS011;3177;49.880;8.836;2023-04-19T12:25:42;1.85;;;1.70;;
6288;SDS011;3177;49.880;8.836;2023-04-19T12:28:10;3.75;;;1.50;;
6288;SDS011;3177;49.880;8.836;2023-04-19T12:30:37;1.65;;;1.55;;
6288;SDS011;3177;49.880;8.836;2023-04-19T12:33:05;3.70;;;1.67;;
6288;SDS011;3177;49.880;8.836;2023-04-19T12:35:32;1.67;;;1.58;;
6288;SDS011;3177;49.880;8.836;2023-04-19T12:37:59;3.35;;;1.77;;
6288;SDS011;3177;49.880;8.836;2023-04-19T12:40:27;1.90;;;1.73;;
6288;SDS011;3177;49.880;8.836;2023-04-19T12:42:56;2.05;;;1.73;;
6288;SDS011;3177;49.880;8.836;2023-04-19T12:45:24;3.05;;;1.85;;
6288;SDS011;3177;49.880;8.836;2023-04-19T12:47:51;3.50;;;1.50;;
6288;SDS011;3177;49.880;8.836;2023-04-19T12:50:18;1.70;;;1.60;;
6288;SDS011;3177;49.880;8.836;2023-04-19T12:52:45;1.60;;;1.50;;
6288;SDS011;3177;49.880;8.836;2023-04-19T12:55:12;2.35;;;1.38;;
6288;SDS011;3177;49.880;8.836;2023-04-19T12:57:40;1.08;;;1.00;;
6288;SDS011;3177;49.880;8.836;2023-04-19T13:00:09;1.65;;;1.33;;
6288;SDS011;3177;49.880;8.836;2023-04-19T13:02:36;2.00;;;1.40;;
6288;SDS011;3177;49.880;8.836;2023-04-19T13:05:03;1.30;;;1.20;;
6288;SDS011;3177;49.880;8.836;2023-04-19T13:07:31;1.58;;;1.48;;
6288;SDS011;3177;49.880;8.836;2023-04-19T13:09:58;1.70;;;1.10;;
6288;SDS011;3177;49.880;8.836;2023-04-19T13:12:25;2.92;;;1.25;;
6288;SDS011;3177;49.880;8.836;2023-04-19T13:14:53;1.42;;;1.33;;
6288;SDS011;3177;49.880;8.836;2023-04-19T13:17:22;2.10;;;1.40;;
6288;SDS011;3177;49.880;8.836;2023-04-19T13:19:49;2.60;;;1.23;;
6288;SDS011;3177;49.880;8.836;2023-04-19T13:22:16;2.03;;;1.02;;
6288;SDS011;3177;49.880;8.836;2023-04-19T13:24:43;2.20;;;1.13;;
6288;SDS011;3177;49.880;8.836;2023-04-19T13:27:10;2.13;;;1.30;;
6288;SDS011;3177;49.880;8.836;2023-04-19T13:29:37;1.95;;;1.50;;
6288;SDS011;3177;49.880;8.836;2023-04-19T13:32:04;1.55;;;1.45;;
6288;SDS011;3177;49.880;8.836;2023-04-19T13:34:37;1.00;;;0.88;;
6288;SDS011;3177;49.880;8.836;2023-04-19T13:37:05;1.77;;;0.95;;
6288;SDS011;3177;49.880;8.836;2023-04-19T13:39:32;1.40;;;1.30;;
6288;SDS011;3177;49.880;8.836;2023-04-19T13:42:00;1.73;;;1.15;;
6288;SDS011;3177;49.880;8.836;2023-04-19T13:44:27;1.30;;;1.15;;
6288;SDS011;3177;49.880;8.836;2023-04-19T13:46:54;2.05;;;1.33;;
6288;SDS011;3177;49.880;8.836;2023-04-19T13:49:22;1.67;;;1.20;;
6288;SDS011;3177;49.880;8.836;2023-04-19T13:51:50;1.25;;;1.15;;
6288;SDS011;3177;49.880;8.836;2023-04-19T13:54:17;1.75;;;1.10;;
6288;SDS011;3177;49.880;8.836;2023-04-19T13:56:45;1.13;;;1.10;;
6288;SDS011;3177;49.880;8.836;2023-04-19T13:59:12;1.50;;;1.23;;
6288;SDS011;3177;49.880;8.836;2023-04-19T14:01:39;1.38;;;1.17;;
6288;SDS011;3177;49.880;8.836;2023-04-19T14:04:06;1.05;;;0.95;;
6288;SDS011;3177;49.880;8.836;2023-04-19T14:06:33;2.45;;;1.00;;
6288;SDS011;3177;49.880;8.836;2023-04-19T14:09:02;0.90;;;0.90;;
6288;SDS011;3177;49.880;8.836;2023-04-19T14:11:29;1.10;;;1.00;;
6288;SDS011;3177;49.880;8.836;2023-04-19T14:13:56;1.45;;;1.05;;
6288;SDS011;3177;49.880;8.836;2023-04-19T14:16:23;1.73;;;1.20;;
6288;SDS011;3177;49.880;8.836;2023-04-19T14:18:50;1.33;;;1.10;;
6288;SDS011;3177;49.880;8.836;2023-04-19T14:21:17;2.55;;;1.30;;
6288;SDS011;3177;49.880;8.836;2023-04-19T14:23:44;3.30;;;1.15;;
6288;SDS011;3177;49.880;8.836;2023-04-19T14:26:13;1.92;;;1.20;;
6288;SDS011;3177;49.880;8.836;2023-04-19T14:28:40;1.90;;;1.30;;
6288;SDS011;3177;49.880;8.836;2023-04-19T14:31:07;1.08;;;1.08;;
6288;SDS011;3177;49.880;8.836;2023-04-19T14:33:34;1.25;;;1.15;;
6288;SDS011;3177;49.880;8.836;2023-04-19T14:36:01;3.03;;;1.30;;
6288;SDS011;3177;49.880;8.836;2023-04-19T14:38:28;2.95;;;1.70;;
6288;SDS011;3177;49.880;8.836;2023-04-19T14:40:55;1.10;;;1.02;;
6288;SDS011;3177;49.880;8.836;2023-04-19T14:43:24;1.40;;;1.30;;
6288;SDS011;3177;49.880;8.836;2023-04-19T14:45:51;1.50;;;1.08;;
6288;SDS011;3177;49.880;8.836;2023-04-19T14:48:18;1.40;;;1.15;;
6288;SDS011;3177;49.880;8.836;2023-04-19T14:50:45;1.40;;;1.30;;
6288;SDS011;3177;49.880;8.836;2023-04-19T14:53:12;1.50;;;1.40;;
6288;SDS011;3177;49.880;8.836;2023-04-19T14:55:39;2.42;;;1.27;;
6288;SDS011;3177;49.880;8.836;2023-04-19T14:58:06;1.20;;;1.10;;
6288;SDS011;3177;49.880;8.836;2023-04-19T15:00:35;2.25;;;1.20;;
6288;SDS011;3177;49.880;8.836;2023-04-19T15:03:02;1.90;;;1.48;;
6288;SDS011;3177;49.880;8.836;2023-04-19T15:05:29;2.47;;;1.13;;
6288;SDS011;3177;49.880;8.836;2023-04-19T15:07:56;3.80;;;1.40;;
6288;SDS011;3177;49.880;8.836;2023-04-19T15:10:23;1.67;;;1.05;;
6288;SDS011;3177;49.880;8.836;2023-04-19T15:12:50;1.65;;;1.55;;
6288;SDS011;3177;49.880;8.836;2023-04-19T15:15:17;2.03;;;1.50;;
6288;SDS011;3177;49.880;8.836;2023-04-19T15:17:46;3.42;;;1.50;;
6288;SDS011;3177;49.880;8.836;2023-04-19T15:20:13;1.88;;;1.42;;
6288;SDS011;3177;49.880;8.836;2023-04-19T15:22:40;1.58;;;1.48;;
6288;SDS011;3177;49.880;8.836;2023-04-19T15:25:07;1.83;;;1.60;;
6288;SDS011;3177;49.880;8.836;2023-04-19T15:27:35;4.40;;;1.70;;